sensor_id;sensor_type;location;lat;lon;timestamp;temperature;humidity
39525;DHT22;25203;50.754;6.978;2022-12-18T00:03:28;-7.20;99.90
39525;DHT22;25203;50.754;6.978;2022-12-18T00:05:29;-7.20;99.90
39525;DHT22;25203;50.754;6.978;2022-12-18T00:07:30;-7.10;99.90
39525;DHT22;25203;50.754;6.978;2022-12-18T00:09:30;-6.80;99.90
39525;DHT22;25203;50.754;6.978;2022-12-18T00:11:31;-6.60;99.90
39525;DHT22;25203;50.754;6.978;2022-12-18T00:13:32;-6.50;99.90
39525;DHT22;25203;50.754;6.978;2022-12-18T00:15:38;-6.30;99.90
39525;DHT22;25203;50.754;6.978;2022-12-18T00:17:39;-6.30;99.90
39525;DHT22;25203;50.754;6.978;2022-12-18T00:19:39;-6.20;99.90
39525;DHT22;25203;50.754;6.978;2022-12-18T00:21:41;-6.30;99.90
39525;DHT22;25203;50.754;6.978;2022-12-18T00:23:43;-6.30;99.90
39525;DHT22;25203;50.754;6.978;2022-12-18T00:25:44;-6.20;99.90
39525;DHT22;25203;50.754;6.978;2022-12-18T00:27:45;-6.10;99.90
39525;DHT22;25203;50.754;6.978;2022-12-18T00:29:45;-6.10;99.90
39525;DHT22;25203;50.754;6.978;2022-12-18T00:31:46;-6.00;99.90
39525;DHT22;25203;50.754;6.978;2022-12-18T00:33:47;-6.00;99.90
39525;DHT22;25203;50.754;6.978;2022-12-18T00:35:48;-5.90;99.90
39525;DHT22;25203;50.754;6.978;2022-12-18T00:37:48;-5.90;99.90
39525;DHT22;25203;50.754;6.978;2022-12-18T00:39:49;-5.90;99.90
39525;DHT22;25203;50.754;6.978;2022-12-18T00:41:50;-5.90;99.90
39525;DHT22;25203;50.754;6.978;2022-12-18T00:44:11;-5.90;99.90
39525;DHT22;25203;50.754;6.978;2022-12-18T00:46:12;-5.90;99.90
39525;DHT22;25203;50.754;6.978;2022-12-18T00:48:12;-6.00;99.90
39525;DHT22;25203;50.754;6.978;2022-12-18T00:50:13;-6.20;99.90
39525;DHT22;25203;50.754;6.978;2022-12-18T00:52:14;-6.30;99.90
39525;DHT22;25203;50.754;6.978;2022-12-18T00:54:15;-6.40;99.90
39525;DHT22;25203;50.754;6.978;2022-12-18T00:56:15;-6.50;99.90
39525;DHT22;25203;50.754;6.978;2022-12-18T00:58:16;-6.70;99.90
39525;DHT22;25203;50.754;6.978;2022-12-18T01:00:17;-6.80;99.90
39525;DHT22;25203;50.754;6.978;2022-12-18T01:02:18;-6.90;99.90
39525;DHT22;25203;50.754;6.978;2022-12-18T01:04:18;-7.00;99.90
39525;DHT22;25203;50.754;6.978;2022-12-18T01:06:19;-7.10;99.90
39525;DHT22;25203;50.754;6.978;2022-12-18T01:08:20;-7.30;99.90
39525;DHT22;25203;50.754;6.978;2022-12-18T01:10:21;-7.30;99.90
39525;DHT22;25203;50.754;6.978;2022-12-18T01:12:21;-7.40;99.90
39525;DHT22;25203;50.754;6.978;2022-12-18T01:14:22;-7.50;99.90
39525;DHT22;25203;50.754;6.978;2022-12-18T01:16:22;-7.50;99.90
39525;DHT22;25203;50.754;6.978;2022-12-18T01:18:23;-7.60;99.90
39525;DHT22;25203;50.754;6.978;2022-12-18T01:20:24;-7.60;99.90
39525;DHT22;25203;50.754;6.978;2022-12-18T01:22:24;-7.70;99.90
39525;DHT22;25203;50.754;6.978;2022-12-18T01:24:25;-7.70;99.90
39525;DHT22;25203;50.754;6.978;2022-12-18T01:26:26;-7.70;99.90
39525;DHT22;25203;50.754;6.978;2022-12-18T01:28:29;-7.80;99.90
39525;DHT22;25203;50.754;6.978;2022-12-18T01:30:30;-7.80;99.90
39525;DHT22;25203;50.754;6.978;2022-12-18T01:32:31;-7.80;99.90
39525;DHT22;25203;50.754;6.978;2022-12-18T01:34:32;-7.80;99.90
39525;DHT22;25203;50.754;6.978;2022-12-18T01:36:35;-7.80;99.90
39525;DHT22;25203;50.754;6.978;2022-12-18T01:38:36;-7.80;99.90
39525;DHT22;25203;50.754;6.978;2022-12-18T01:40:36;-7.80;99.90
39525;DHT22;25203;50.754;6.978;2022-12-18T01:42:37;-7.60;99.90
39525;DHT22;25203;50.754;6.978;2022-12-18T01:45:06;-7.30;99.90
39525;DHT22;25203;50.754;6.978;2022-12-18T01:47:07;-7.00;99.90
39525;DHT22;25203;50.754;6.978;2022-12-18T01:49:08;-6.90;99.90
39525;DHT22;25203;50.754;6.978;2022-12-18T01:51:10;-6.80;99.90
39525;DHT22;25203;50.754;6.978;2022-12-18T01:53:20;-6.80;99.90
39525;DHT22;25203;50.754;6.978;2022-12-18T01:55:24;-6.70;99.90
39525;DHT22;25203;50.754;6.978;2022-12-18T01:57:27;-6.70;99.90
39525;DHT22;25203;50.754;6.978;2022-12-18T01:59:29;-6.60;99.90
39525;DHT22;25203;50.754;6.978;2022-12-18T02:01:31;-6.40;99.90
39525;DHT22;25203;50.754;6.978;2022-12-18T02:03:31;-6.30;99.90
39525;DHT22;25203;50.754;6.978;2022-12-18T02:05:44;-6.10;99.90
39525;DHT22;25203;50.754;6.978;2022-12-18T02:12:28;-5.90;99.90
39525;DHT22;25203;50.754;6.978;2022-12-18T02:16:54;-6.00;99.90
39525;DHT22;25203;50.754;6.978;2022-12-18T02:18:59;-6.00;99.90
39525;DHT22;25203;50.754;6.978;2022-12-18T02:21:04;-6.00;99.90
39525;DHT22;25203;50.754;6.978;2022-12-18T02:27:36;-6.00;99.90
39525;DHT22;25203;50.754;6.978;2022-12-18T02:29:42;-5.90;99.90
39525;DHT22;25203;50.754;6.978;2022-12-18T02:31:51;-5.90;99.90
39525;DHT22;25203;50.754;6.978;2022-12-18T02:33:56;-5.90;99.90
39525;DHT22;25203;50.754;6.978;2022-12-18T02:35:59;-5.90;99.90
39525;DHT22;25203;50.754;6.978;2022-12-18T02:38:01;-5.90;99.90
39525;DHT22;25203;50.754;6.978;2022-12-18T02:40:03;-5.90;99.90
39525;DHT22;25203;50.754;6.978;2022-12-18T02:42:04;-6.00;99.90
39525;DHT22;25203;50.754;6.978;2022-12-18T02:44:12;-6.00;99.90
39525;DHT22;25203;50.754;6.978;2022-12-18T02:48:33;-6.20;99.90
39525;DHT22;25203;50.754;6.978;2022-12-18T02:50:45;-6.30;99.90
39525;DHT22;25203;50.754;6.978;2022-12-18T02:53:22;-6.20;99.90
39525;DHT22;25203;50.754;6.978;2022-12-18T03:00:14;-5.90;99.90
39525;DHT22;25203;50.754;6.978;2022-12-18T03:04:27;-5.70;99.90
39525;DHT22;25203;50.754;6.978;2022-12-18T03:06:33;-5.60;99.90
39525;DHT22;25203;50.754;6.978;2022-12-18T03:08:39;-5.60;99.90
39525;DHT22;25203;50.754;6.978;2022-12-18T03:10:47;-5.60;99.90
39525;DHT22;25203;50.754;6.978;2022-12-18T03:12:53;-5.50;99.90
39525;DHT22;25203;50.754;6.978;2022-12-18T03:17:05;-5.40;99.90
39525;DHT22;25203;50.754;6.978;2022-12-18T03:19:12;-5.40;99.90
39525;DHT22;25203;50.754;6.978;2022-12-18T03:21:19;-5.40;99.90
39525;DHT22;25203;50.754;6.978;2022-12-18T03:23:25;-5.40;99.90
39525;DHT22;25203;50.754;6.978;2022-12-18T03:25:28;-5.30;99.90
39525;DHT22;25203;50.754;6.978;2022-12-18T03:27:31;-5.30;99.90
39525;DHT22;25203;50.754;6.978;2022-12-18T03:29:42;-5.20;99.90
39525;DHT22;25203;50.754;6.978;2022-12-18T03:31:49;-5.20;99.90
39525;DHT22;25203;50.754;6.978;2022-12-18T03:33:55;-5.20;99.90
39525;DHT22;25203;50.754;6.978;2022-12-18T03:35:56;-5.10;99.90
39525;DHT22;25203;50.754;6.978;2022-12-18T03:37:57;-5.10;99.90
39525;DHT22;25203;50.754;6.978;2022-12-18T03:39:57;-5.10;99.90
39525;DHT22;25203;50.754;6.978;2022-12-18T03:42:02;-5.10;99.90
39525;DHT22;25203;50.754;6.978;2022-12-18T03:44:13;-5.10;99.90
39525;DHT22;25203;50.754;6.978;2022-12-18T03:46:24;-5.00;99.90
39525;DHT22;25203;50.754;6.978;2022-12-18T03:48:41;-5.00;99.90
39525;DHT22;25203;50.754;6.978;2022-12-18T03:51:02;-5.00;99.90
39525;DHT22;25203;50.754;6.978;2022-12-18T03:55:27;-5.10;99.90
39525;DHT22;25203;50.754;6.978;2022-12-18T03:57:31;-5.20;99.90
39525;DHT22;25203;50.754;6.978;2022-12-18T03:59:32;-5.20;99.90
39525;DHT22;25203;50.754;6.978;2022-12-18T04:01:38;-5.20;99.90
39525;DHT22;25203;50.754;6.978;2022-12-18T04:03:40;-5.20;99.90
39525;DHT22;25203;50.754;6.978;2022-12-18T04:05:43;-5.20;99.90
39525;DHT22;25203;50.754;6.978;2022-12-18T04:07:46;-5.20;99.90
39525;DHT22;25203;50.754;6.978;2022-12-18T04:09:48;-5.20;99.90
39525;DHT22;25203;50.754;6.978;2022-12-18T04:11:49;-5.20;99.90
39525;DHT22;25203;50.754;6.978;2022-12-18T04:13:55;-5.20;99.90
39525;DHT22;25203;50.754;6.978;2022-12-18T04:15:57;-5.20;99.90
39525;DHT22;25203;50.754;6.978;2022-12-18T04:17:57;-5.20;99.90
39525;DHT22;25203;50.754;6.978;2022-12-18T04:19:58;-5.20;99.90
39525;DHT22;25203;50.754;6.978;2022-12-18T04:21:59;-5.20;99.90
39525;DHT22;25203;50.754;6.978;2022-12-18T04:23:59;-5.20;99.90
39525;DHT22;25203;50.754;6.978;2022-12-18T04:26:00;-5.20;99.90
39525;DHT22;25203;50.754;6.978;2022-12-18T04:28:00;-5.10;99.90
39525;DHT22;25203;50.754;6.978;2022-12-18T04:30:01;-5.10;99.90
39525;DHT22;25203;50.754;6.978;2022-12-18T04:32:02;-5.10;99.90
39525;DHT22;25203;50.754;6.978;2022-12-18T04:34:03;-5.00;99.90
39525;DHT22;25203;50.754;6.978;2022-12-18T04:36:04;-5.00;99.90
39525;DHT22;25203;50.754;6.978;2022-12-18T04:38:06;-5.00;99.90
39525;DHT22;25203;50.754;6.978;2022-12-18T04:40:09;-5.00;99.90
39525;DHT22;25203;50.754;6.978;2022-12-18T04:42:09;-5.00;99.90
39525;DHT22;25203;50.754;6.978;2022-12-18T04:44:10;-5.00;99.90
39525;DHT22;25203;50.754;6.978;2022-12-18T04:46:10;-5.10;99.90
39525;DHT22;25203;50.754;6.978;2022-12-18T04:48:11;-5.10;99.90
39525;DHT22;25203;50.754;6.978;2022-12-18T04:50:12;-5.10;99.90
39525;DHT22;25203;50.754;6.978;2022-12-18T04:52:12;-5.10;99.90
39525;DHT22;25203;50.754;6.978;2022-12-18T04:54:13;-5.10;99.90
39525;DHT22;25203;50.754;6.978;2022-12-18T04:56:15;-5.20;99.90
39525;DHT22;25203;50.754;6.978;2022-12-18T04:58:16;-5.20;99.90
39525;DHT22;25203;50.754;6.978;2022-12-18T05:00:17;-5.10;99.90
39525;DHT22;25203;50.754;6.978;2022-12-18T05:02:17;-5.20;99.90
39525;DHT22;25203;50.754;6.978;2022-12-18T05:04:18;-5.10;99.90
39525;DHT22;25203;50.754;6.978;2022-12-18T05:06:18;-5.10;99.90
39525;DHT22;25203;50.754;6.978;2022-12-18T05:08:19;-5.10;99.90
39525;DHT22;25203;50.754;6.978;2022-12-18T05:10:20;-5.20;99.90
39525;DHT22;25203;50.754;6.978;2022-12-18T05:12:20;-5.30;99.90
39525;DHT22;25203;50.754;6.978;2022-12-18T05:14:21;-5.40;99.90
39525;DHT22;25203;50.754;6.978;2022-12-18T05:16:21;-5.40;99.90
39525;DHT22;25203;50.754;6.978;2022-12-18T05:18:26;-5.60;99.90
39525;DHT22;25203;50.754;6.978;2022-12-18T05:20:27;-5.60;99.90
39525;DHT22;25203;50.754;6.978;2022-12-18T05:22:27;-5.70;99.90
39525;DHT22;25203;50.754;6.978;2022-12-18T05:24:28;-5.70;99.90
39525;DHT22;25203;50.754;6.978;2022-12-18T05:26:29;-5.80;99.90
39525;DHT22;25203;50.754;6.978;2022-12-18T05:28:31;-5.80;99.90
39525;DHT22;25203;50.754;6.978;2022-12-18T05:30:32;-5.80;99.90
39525;DHT22;25203;50.754;6.978;2022-12-18T05:32:32;-5.80;99.90
39525;DHT22;25203;50.754;6.978;2022-12-18T05:34:33;-5.80;99.90
39525;DHT22;25203;50.754;6.978;2022-12-18T05:36:34;-5.70;99.90
39525;DHT22;25203;50.754;6.978;2022-12-18T05:38:36;-5.70;99.90
39525;DHT22;25203;50.754;6.978;2022-12-18T05:40:37;-5.70;99.90
39525;DHT22;25203;50.754;6.978;2022-12-18T05:42:41;-5.60;99.90
39525;DHT22;25203;50.754;6.978;2022-12-18T05:44:43;-5.60;99.90
39525;DHT22;25203;50.754;6.978;2022-12-18T05:46:43;-5.60;99.90
39525;DHT22;25203;50.754;6.978;2022-12-18T05:48:44;-5.60;99.90
39525;DHT22;25203;50.754;6.978;2022-12-18T05:50:46;-5.50;99.90
39525;DHT22;25203;50.754;6.978;2022-12-18T05:52:47;-5.60;99.90
39525;DHT22;25203;50.754;6.978;2022-12-18T05:54:47;-5.60;99.90
39525;DHT22;25203;50.754;6.978;2022-12-18T05:56:48;-5.50;99.90
39525;DHT22;25203;50.754;6.978;2022-12-18T05:58:52;-5.60;99.90
39525;DHT22;25203;50.754;6.978;2022-12-18T06:00:53;-5.50;99.90
39525;DHT22;25203;50.754;6.978;2022-12-18T06:02:54;-5.50;99.90
39525;DHT22;25203;50.754;6.978;2022-12-18T06:04:55;-5.50;99.90
39525;DHT22;25203;50.754;6.978;2022-12-18T06:06:55;-5.40;99.90
39525;DHT22;25203;50.754;6.978;2022-12-18T06:08:57;-5.40;99.90
39525;DHT22;25203;50.754;6.978;2022-12-18T06:10:58;-5.30;99.90
39525;DHT22;25203;50.754;6.978;2022-12-18T06:12:58;-5.30;99.90
39525;DHT22;25203;50.754;6.978;2022-12-18T06:14:59;-5.30;99.90
39525;DHT22;25203;50.754;6.978;2022-12-18T06:17:00;-5.30;99.90
39525;DHT22;25203;50.754;6.978;2022-12-18T06:19:03;-5.30;99.90
39525;DHT22;25203;50.754;6.978;2022-12-18T06:21:04;-5.40;99.90
39525;DHT22;25203;50.754;6.978;2022-12-18T06:23:05;-5.40;99.90
39525;DHT22;25203;50.754;6.978;2022-12-18T06:25:06;-5.40;99.90
39525;DHT22;25203;50.754;6.978;2022-12-18T06:27:07;-5.50;99.90
39525;DHT22;25203;50.754;6.978;2022-12-18T06:29:08;-5.50;99.90
39525;DHT22;25203;50.754;6.978;2022-12-18T06:31:09;-5.50;99.90
39525;DHT22;25203;50.754;6.978;2022-12-18T06:33:10;-5.50;99.90
39525;DHT22;25203;50.754;6.978;2022-12-18T06:35:10;-5.50;99.90
39525;DHT22;25203;50.754;6.978;2022-12-18T06:37:11;-5.50;99.90
39525;DHT22;25203;50.754;6.978;2022-12-18T06:39:11;-5.50;99.90
39525;DHT22;25203;50.754;6.978;2022-12-18T06:41:14;-5.50;99.90
39525;DHT22;25203;50.754;6.978;2022-12-18T06:43:15;-5.50;99.90
39525;DHT22;25203;50.754;6.978;2022-12-18T06:45:16;-5.50;99.90
39525;DHT22;25203;50.754;6.978;2022-12-18T06:47:17;-5.50;99.90
39525;DHT22;25203;50.754;6.978;2022-12-18T06:49:17;-5.60;99.90
39525;DHT22;25203;50.754;6.978;2022-12-18T06:51:19;-5.60;99.90
39525;DHT22;25203;50.754;6.978;2022-12-18T06:53:20;-5.50;99.90
39525;DHT22;25203;50.754;6.978;2022-12-18T06:55:22;-5.40;99.90
39525;DHT22;25203;50.754;6.978;2022-12-18T06:57:22;-5.40;99.90
39525;DHT22;25203;50.754;6.978;2022-12-18T06:59:23;-5.40;99.90
39525;DHT22;25203;50.754;6.978;2022-12-18T07:01:24;-5.40;99.90
39525;DHT22;25203;50.754;6.978;2022-12-18T07:03:24;-5.40;99.90
39525;DHT22;25203;50.754;6.978;2022-12-18T07:05:25;-5.40;99.90
39525;DHT22;25203;50.754;6.978;2022-12-18T07:07:26;-5.40;99.90
39525;DHT22;25203;50.754;6.978;2022-12-18T07:09:26;-5.40;99.90
39525;DHT22;25203;50.754;6.978;2022-12-18T07:11:27;-5.40;99.90
39525;DHT22;25203;50.754;6.978;2022-12-18T07:13:27;-5.30;99.90
39525;DHT22;25203;50.754;6.978;2022-12-18T07:15:28;-5.30;99.90
39525;DHT22;25203;50.754;6.978;2022-12-18T07:17:29;-5.30;99.90
39525;DHT22;25203;50.754;6.978;2022-12-18T07:19:29;-5.30;99.90
39525;DHT22;25203;50.754;6.978;2022-12-18T07:21:30;-5.20;99.90
39525;DHT22;25203;50.754;6.978;2022-12-18T07:23:32;-5.20;99.90
39525;DHT22;25203;50.754;6.978;2022-12-18T07:25:35;-5.20;99.90
39525;DHT22;25203;50.754;6.978;2022-12-18T07:27:35;-5.20;99.90
39525;DHT22;25203;50.754;6.978;2022-12-18T07:29:36;-5.20;99.90
39525;DHT22;25203;50.754;6.978;2022-12-18T07:31:36;-5.20;99.90
39525;DHT22;25203;50.754;6.978;2022-12-18T07:33:37;-5.20;99.90
39525;DHT22;25203;50.754;6.978;2022-12-18T07:35:38;-5.20;99.90
39525;DHT22;25203;50.754;6.978;2022-12-18T07:37:39;-5.10;99.90
39525;DHT22;25203;50.754;6.978;2022-12-18T07:39:40;-5.00;99.90
39525;DHT22;25203;50.754;6.978;2022-12-18T07:41:41;-5.00;99.90
39525;DHT22;25203;50.754;6.978;2022-12-18T07:44:04;-4.90;99.90
39525;DHT22;25203;50.754;6.978;2022-12-18T07:46:06;-4.90;99.90
39525;DHT22;25203;50.754;6.978;2022-12-18T07:48:06;-4.90;99.90
39525;DHT22;25203;50.754;6.978;2022-12-18T07:50:07;-4.90;99.90
39525;DHT22;25203;50.754;6.978;2022-12-18T07:52:08;-4.90;99.90
39525;DHT22;25203;50.754;6.978;2022-12-18T07:54:09;-4.80;99.90
39525;DHT22;25203;50.754;6.978;2022-12-18T07:56:11;-4.80;99.90
39525;DHT22;25203;50.754;6.978;2022-12-18T07:58:12;-4.80;99.90
39525;DHT22;25203;50.754;6.978;2022-12-18T08:00:13;-4.80;99.90
39525;DHT22;25203;50.754;6.978;2022-12-18T08:02:14;-4.70;99.90
39525;DHT22;25203;50.754;6.978;2022-12-18T08:04:15;-4.70;99.90
39525;DHT22;25203;50.754;6.978;2022-12-18T08:06:15;-4.70;99.90
39525;DHT22;25203;50.754;6.978;2022-12-18T08:08:16;-4.70;99.90
39525;DHT22;25203;50.754;6.978;2022-12-18T08:10:17;-4.70;99.90
39525;DHT22;25203;50.754;6.978;2022-12-18T08:12:18;-4.60;99.90
39525;DHT22;25203;50.754;6.978;2022-12-18T08:14:19;-4.60;99.90
39525;DHT22;25203;50.754;6.978;2022-12-18T08:16:20;-4.50;99.90
39525;DHT22;25203;50.754;6.978;2022-12-18T08:18:21;-4.50;99.90
39525;DHT22;25203;50.754;6.978;2022-12-18T08:20:21;-4.50;99.90
39525;DHT22;25203;50.754;6.978;2022-12-18T08:22:22;-4.40;99.90
39525;DHT22;25203;50.754;6.978;2022-12-18T08:24:23;-4.40;99.90
39525;DHT22;25203;50.754;6.978;2022-12-18T08:26:25;-4.30;99.90
39525;DHT22;25203;50.754;6.978;2022-12-18T08:28:26;-4.20;99.90
39525;DHT22;25203;50.754;6.978;2022-12-18T08:30:26;-4.10;99.90
39525;DHT22;25203;50.754;6.978;2022-12-18T08:32:27;-3.60;99.90
39525;DHT22;25203;50.754;6.978;2022-12-18T08:34:28;-3.00;99.90
39525;DHT22;25203;50.754;6.978;2022-12-18T08:36:29;-2.30;99.90
39525;DHT22;25203;50.754;6.978;2022-12-18T08:38:29;-1.90;99.90
39525;DHT22;25203;50.754;6.978;2022-12-18T08:40:30;-1.50;99.90
39525;DHT22;25203;50.754;6.978;2022-12-18T08:42:30;-1.20;99.90
39525;DHT22;25203;50.754;6.978;2022-12-18T08:44:50;-1.00;99.90
39525;DHT22;25203;50.754;6.978;2022-12-18T08:46:50;-1.20;99.90
39525;DHT22;25203;50.754;6.978;2022-12-18T08:48:52;-1.40;99.90
39525;DHT22;25203;50.754;6.978;2022-12-18T08:50:57;-1.70;99.90
39525;DHT22;25203;50.754;6.978;2022-12-18T08:52:58;-1.60;99.90
39525;DHT22;25203;50.754;6.978;2022-12-18T08:54:59;-1.40;99.90
39525;DHT22;25203;50.754;6.978;2022-12-18T08:56:59;-1.10;99.90
39525;DHT22;25203;50.754;6.978;2022-12-18T08:59:00;-0.90;99.90
39525;DHT22;25203;50.754;6.978;2022-12-18T09:01:05;-0.70;99.90
39525;DHT22;25203;50.754;6.978;2022-12-18T09:03:14;-0.70;99.90
39525;DHT22;25203;50.754;6.978;2022-12-18T09:05:15;-0.80;99.90
39525;DHT22;25203;50.754;6.978;2022-12-18T09:07:15;-0.90;99.90
39525;DHT22;25203;50.754;6.978;2022-12-18T09:09:16;-0.70;99.90
39525;DHT22;25203;50.754;6.978;2022-12-18T09:11:23;-0.50;99.90
39525;DHT22;25203;50.754;6.978;2022-12-18T09:13:24;-0.30;99.90
39525;DHT22;25203;50.754;6.978;2022-12-18T09:15:24;-0.40;99.90
39525;DHT22;25203;50.754;6.978;2022-12-18T09:17:25;-0.70;99.90
39525;DHT22;25203;50.754;6.978;2022-12-18T09:19:26;-0.80;99.90
39525;DHT22;25203;50.754;6.978;2022-12-18T09:21:30;-1.20;99.90
39525;DHT22;25203;50.754;6.978;2022-12-18T09:23:31;-1.30;99.90
39525;DHT22;25203;50.754;6.978;2022-12-18T09:25:32;-1.30;99.90
39525;DHT22;25203;50.754;6.978;2022-12-18T09:27:34;-1.30;99.90
39525;DHT22;25203;50.754;6.978;2022-12-18T09:29:34;-1.10;99.90
39525;DHT22;25203;50.754;6.978;2022-12-18T09:31:36;-0.90;99.90
39525;DHT22;25203;50.754;6.978;2022-12-18T09:33:37;-0.60;99.90
39525;DHT22;25203;50.754;6.978;2022-12-18T09:35:38;-0.30;99.90
39525;DHT22;25203;50.754;6.978;2022-12-18T09:37:39;0.10;99.90
39525;DHT22;25203;50.754;6.978;2022-12-18T09:39:42;0.30;99.50
39525;DHT22;25203;50.754;6.978;2022-12-18T09:41:50;0.00;99.80
39525;DHT22;25203;50.754;6.978;2022-12-18T09:43:57;-0.30;99.90
39525;DHT22;25203;50.754;6.978;2022-12-18T09:46:02;-0.70;99.90
39525;DHT22;25203;50.754;6.978;2022-12-18T09:48:05;-1.00;99.90
39525;DHT22;25203;50.754;6.978;2022-12-18T09:50:24;-1.00;99.90
39525;DHT22;25203;50.754;6.978;2022-12-18T09:52:39;-1.00;99.90
39525;DHT22;25203;50.754;6.978;2022-12-18T09:54:42;-1.00;99.90
39525;DHT22;25203;50.754;6.978;2022-12-18T09:56:44;-0.90;99.90
39525;DHT22;25203;50.754;6.978;2022-12-18T10:00:54;-0.90;99.90
39525;DHT22;25203;50.754;6.978;2022-12-18T10:03:10;-0.70;99.90
39525;DHT22;25203;50.754;6.978;2022-12-18T10:08:02;-0.80;99.90
39525;DHT22;25203;50.754;6.978;2022-12-18T10:12:28;-0.80;99.90
39525;DHT22;25203;50.754;6.978;2022-12-18T10:19:03;-0.70;99.90
39525;DHT22;25203;50.754;6.978;2022-12-18T10:21:14;-0.60;99.90
39525;DHT22;25203;50.754;6.978;2022-12-18T10:23:18;-0.30;99.90
39525;DHT22;25203;50.754;6.978;2022-12-18T10:27:57;0.10;99.90
39525;DHT22;25203;50.754;6.978;2022-12-18T10:30:00;0.20;99.90
39525;DHT22;25203;50.754;6.978;2022-12-18T10:32:01;0.40;99.90
39525;DHT22;25203;50.754;6.978;2022-12-18T10:34:01;0.50;99.80
39525;DHT22;25203;50.754;6.978;2022-12-18T10:36:02;0.70;99.90
39525;DHT22;25203;50.754;6.978;2022-12-18T10:40:15;1.00;99.10
39525;DHT22;25203;50.754;6.978;2022-12-18T10:42:18;1.00;99.40
39525;DHT22;25203;50.754;6.978;2022-12-18T10:44:23;0.80;98.50
39525;DHT22;25203;50.754;6.978;2022-12-18T10:46:25;0.50;99.90
39525;DHT22;25203;50.754;6.978;2022-12-18T10:48:26;0.40;99.90
39525;DHT22;25203;50.754;6.978;2022-12-18T10:50:31;0.20;99.90
39525;DHT22;25203;50.754;6.978;2022-12-18T10:52:32;0.00;99.90
39525;DHT22;25203;50.754;6.978;2022-12-18T10:54:34;0.10;99.90
39525;DHT22;25203;50.754;6.978;2022-12-18T10:56:36;-0.10;99.90
39525;DHT22;25203;50.754;6.978;2022-12-18T10:58:38;-0.20;99.90
39525;DHT22;25203;50.754;6.978;2022-12-18T11:00:39;-0.30;99.90
39525;DHT22;25203;50.754;6.978;2022-12-18T11:02:41;-0.40;99.90
39525;DHT22;25203;50.754;6.978;2022-12-18T11:04:51;-0.40;99.90
39525;DHT22;25203;50.754;6.978;2022-12-18T11:08:59;-0.50;99.90
39525;DHT22;25203;50.754;6.978;2022-12-18T11:11:01;-0.60;99.90
39525;DHT22;25203;50.754;6.978;2022-12-18T11:13:15;-0.60;99.90
39525;DHT22;25203;50.754;6.978;2022-12-18T11:15:20;-0.70;99.90
39525;DHT22;25203;50.754;6.978;2022-12-18T11:17:33;-0.80;99.90
39525;DHT22;25203;50.754;6.978;2022-12-18T11:19:39;-0.90;99.90
39525;DHT22;25203;50.754;6.978;2022-12-18T11:21:41;-1.00;99.90
39525;DHT22;25203;50.754;6.978;2022-12-18T11:23:53;-0.90;99.90
39525;DHT22;25203;50.754;6.978;2022-12-18T11:26:04;-0.90;99.90
39525;DHT22;25203;50.754;6.978;2022-12-18T11:30:31;-0.80;99.90
39525;DHT22;25203;50.754;6.978;2022-12-18T11:32:48;-0.90;99.90
39525;DHT22;25203;50.754;6.978;2022-12-18T11:34:53;-0.90;99.90
39525;DHT22;25203;50.754;6.978;2022-12-18T11:37:00;-1.00;99.90
39525;DHT22;25203;50.754;6.978;2022-12-18T11:39:18;-1.10;99.90
39525;DHT22;25203;50.754;6.978;2022-12-18T11:41:41;-1.10;99.90
39525;DHT22;25203;50.754;6.978;2022-12-18T11:44:07;-1.10;99.90
39525;DHT22;25203;50.754;6.978;2022-12-18T11:46:24;-1.20;99.90
39525;DHT22;25203;50.754;6.978;2022-12-18T11:48:33;-1.20;99.90
39525;DHT22;25203;50.754;6.978;2022-12-18T11:52:40;-1.30;99.90
39525;DHT22;25203;50.754;6.978;2022-12-18T11:54:41;-1.20;99.90
39525;DHT22;25203;50.754;6.978;2022-12-18T12:03:59;-1.30;99.90
39525;DHT22;25203;50.754;6.978;2022-12-18T12:08:34;-1.30;99.90
39525;DHT22;25203;50.754;6.978;2022-12-18T12:15:22;-1.20;99.90
39525;DHT22;25203;50.754;6.978;2022-12-18T12:25:59;-1.20;99.90
39525;DHT22;25203;50.754;6.978;2022-12-18T12:30:42;-1.30;99.90
39525;DHT22;25203;50.754;6.978;2022-12-18T12:33:14;-1.40;99.90
39525;DHT22;25203;50.754;6.978;2022-12-18T12:38:19;-1.40;99.90
39525;DHT22;25203;50.754;6.978;2022-12-18T12:40:02;-1.40;99.90
39525;DHT22;25203;50.754;6.978;2022-12-18T12:42:13;-1.50;99.90
39525;DHT22;25203;50.754;6.978;2022-12-18T12:44:55;-1.50;99.90
39525;DHT22;25203;50.754;6.978;2022-12-18T12:47:03;-1.50;99.90
39525;DHT22;25203;50.754;6.978;2022-12-18T12:49:20;-1.60;99.90
39525;DHT22;25203;50.754;6.978;2022-12-18T12:51:25;-1.50;99.90
39525;DHT22;25203;50.754;6.978;2022-12-18T12:53:34;-1.60;99.90
39525;DHT22;25203;50.754;6.978;2022-12-18T12:55:36;-1.60;99.90
39525;DHT22;25203;50.754;6.978;2022-12-18T12:57:40;-1.60;99.90
39525;DHT22;25203;50.754;6.978;2022-12-18T13:02:18;-1.60;99.90
39525;DHT22;25203;50.754;6.978;2022-12-18T13:04:27;-1.60;99.90
39525;DHT22;25203;50.754;6.978;2022-12-18T13:09:07;-1.60;99.90
39525;DHT22;25203;50.754;6.978;2022-12-18T13:11:40;-1.60;99.90
39525;DHT22;25203;50.754;6.978;2022-12-18T13:13:59;-1.70;99.90
39525;DHT22;25203;50.754;6.978;2022-12-18T13:16:06;-1.70;99.90
39525;DHT22;25203;50.754;6.978;2022-12-18T13:20:12;-1.80;99.90
39525;DHT22;25203;50.754;6.978;2022-12-18T13:22:34;-1.80;99.90
39525;DHT22;25203;50.754;6.978;2022-12-18T13:24:34;-1.80;99.90
39525;DHT22;25203;50.754;6.978;2022-12-18T13:26:35;-1.80;99.90
39525;DHT22;25203;50.754;6.978;2022-12-18T13:30:53;-1.80;99.90
39525;DHT22;25203;50.754;6.978;2022-12-18T13:37:43;-1.80;99.90
39525;DHT22;25203;50.754;6.978;2022-12-18T13:39:44;-1.80;99.90
39525;DHT22;25203;50.754;6.978;2022-12-18T13:41:46;-1.70;99.90
39525;DHT22;25203;50.754;6.978;2022-12-18T13:43:48;-1.80;99.90
39525;DHT22;25203;50.754;6.978;2022-12-18T13:45:59;-1.80;99.90
39525;DHT22;25203;50.754;6.978;2022-12-18T13:48:00;-1.80;99.90
39525;DHT22;25203;50.754;6.978;2022-12-18T13:50:04;-1.70;99.90
39525;DHT22;25203;50.754;6.978;2022-12-18T13:52:25;-1.70;99.90
39525;DHT22;25203;50.754;6.978;2022-12-18T13:54:36;-1.60;99.90
39525;DHT22;25203;50.754;6.978;2022-12-18T13:56:43;-1.60;99.90
39525;DHT22;25203;50.754;6.978;2022-12-18T13:58:44;-1.70;99.90
39525;DHT22;25203;50.754;6.978;2022-12-18T14:00:45;-1.70;99.90
39525;DHT22;25203;50.754;6.978;2022-12-18T14:02:46;-1.70;99.90
39525;DHT22;25203;50.754;6.978;2022-12-18T14:04:48;-1.80;99.90
39525;DHT22;25203;50.754;6.978;2022-12-18T14:06:55;-1.80;99.90
39525;DHT22;25203;50.754;6.978;2022-12-18T14:08:56;-1.90;99.90
39525;DHT22;25203;50.754;6.978;2022-12-18T14:10:57;-1.90;99.90
39525;DHT22;25203;50.754;6.978;2022-12-18T14:13:04;-1.90;99.90
39525;DHT22;25203;50.754;6.978;2022-12-18T14:15:11;-1.90;99.90
39525;DHT22;25203;50.754;6.978;2022-12-18T14:17:17;-2.00;99.90
39525;DHT22;25203;50.754;6.978;2022-12-18T14:19:18;-2.00;99.90
39525;DHT22;25203;50.754;6.978;2022-12-18T14:21:23;-2.00;99.90
39525;DHT22;25203;50.754;6.978;2022-12-18T14:25:30;-2.00;99.90
39525;DHT22;25203;50.754;6.978;2022-12-18T14:27:31;-2.00;99.90
39525;DHT22;25203;50.754;6.978;2022-12-18T14:29:34;-2.00;99.90
39525;DHT22;25203;50.754;6.978;2022-12-18T14:31:34;-2.00;99.90
39525;DHT22;25203;50.754;6.978;2022-12-18T14:33:38;-2.10;99.90
39525;DHT22;25203;50.754;6.978;2022-12-18T14:35:53;-2.10;99.90
39525;DHT22;25203;50.754;6.978;2022-12-18T14:38:21;-2.10;99.90